Time;durP1;ratioP1;P1;durP2;ratioP2;P2;SDS_P1;SDS_P2;PMS_P1;PMS_P2;Temp;Humidity;BMP_temperature;BMP_pressure;BME280_temperature;BME280_humidity;BME280_pressure;Samples;Min_cycle;Max_cycle;Signal;HPM_P1;HPM_P2
2022/06/16 00:03:10;;;;;;;9.63;3.97;;;;;;;19.81;69.31;100686.44;8355137;28;20067;-64
2022/06/16 00:07:10;;;;;;;9.82;3.97;;;;;;;19.67;69.58;100683.75;8356353;28;20516;-62
2022/06/16 00:11:19;;;;;;;12.50;3.30;;;;;;;19.68;69.67;100671.75;8357375;28;20041;-64
2022/06/16 00:15:24;;;;;;;7.03;3.33;;;;;;;19.63;70.13;100665.97;8356901;28;20861;-64
2022/06/16 00:19:24;;;;;;;7.25;3.78;;;;;;;19.57;70.20;100678.59;8351789;28;20025;-64
2022/06/16 00:23:25;;;;;;;6.65;3.17;;;;;;;19.46;70.90;100682.69;8350119;28;20085;-64
2022/06/16 00:27:25;;;;;;;10.57;3.42;;;;;;;19.43;71.11;100688.56;8356781;28;20029;-64
2022/06/16 00:31:26;;;;;;;8.55;3.67;;;;;;;19.39;71.33;100698.22;8356237;28;20059;-64
2022/06/16 00:35:26;;;;;;;11.20;3.43;;;;;;;19.33;71.47;100696.25;8355826;28;20383;-64
2022/06/16 00:39:26;;;;;;;8.50;3.50;;;;;;;19.36;71.49;100693.13;8355981;28;20341;-64
2022/06/16 00:43:28;;;;;;;9.50;3.50;;;;;;;19.36;71.52;100698.59;8355716;28;20275;-64
2022/06/16 00:47:30;;;;;;;11.38;3.50;;;;;;;19.39;71.66;100681.75;8356165;28;20033;-64
2022/06/16 00:51:43;;;;;;;7.25;3.00;;;;;;;19.36;71.67;100682.16;8343442;28;20045;-64
2022/06/16 00:55:44;;;;;;;13.07;3.75;;;;;;;19.32;71.78;100690.97;8355368;28;20037;-64
2022/06/16 00:59:45;;;;;;;11.10;3.78;;;;;;;19.33;71.83;100693.50;8323606;28;20422;-64
2022/06/16 01:04:53;;;;;;;6.10;3.20;;;;;;;19.28;72.21;100698.72;8320987;28;20410;-64
2022/06/16 01:08:07;;;;;;;9.95;3.10;;;;;;;19.30;72.26;100704.00;8349008;28;20033;-64
2022/06/16 01:13:48;;;;;;;10.43;3.95;;;;;;;19.28;72.53;100706.94;8355388;28;20047;-64
2022/06/16 01:17:33;;;;;;;6.82;3.55;;;;;;;19.22;72.79;100710.41;8352578;28;20049;-64
2022/06/16 01:21:58;;;;;;;7.65;3.42;;;;;;;19.25;72.93;100712.75;8341001;28;20044;-64
2022/06/16 01:26:27;;;;;;;12.38;3.47;;;;;;;19.18;73.53;100711.84;8354104;28;20450;-64
2022/06/16 01:30:39;;;;;;;5.82;3.95;;;;;;;19.04;74.33;100731.03;8343746;28;20090;-64
2022/06/16 01:39:26;;;;;;;9.30;4.22;;;;;;;18.89;74.69;100736.53;8294581;28;20405;-62
2022/06/16 01:43:35;;;;;;;9.10;3.67;;;;;;;18.90;74.78;100724.53;8292437;28;20042;-62
2022/06/16 01:47:39;;;;;;;9.63;4.10;;;;;;;18.89;75.20;100733.81;8280814;28;20429;-62
2022/06/16 01:51:45;;;;;;;9.52;4.30;;;;;;;18.75;76.70;100726.41;8297593;28;20034;-62
2022/06/16 01:56:01;;;;;;;6.90;4.30;;;;;;;18.53;78.55;100732.81;8312501;28;20092;-62
2022/06/16 02:00:21;;;;;;;6.82;4.07;;;;;;;18.46;77.36;100739.22;8281664;28;20062;-62
2022/06/16 02:04:36;;;;;;;6.43;3.83;;;;;;;18.60;76.46;100733.75;8278847;28;20042;-62
2022/06/16 02:08:40;;;;;;;11.68;4.65;;;;;;;18.62;76.22;100736.31;8281449;28;20054;-62
2022/06/16 02:12:57;;;;;;;;;;;;;;;18.42;77.99;100741.47;8289490;28;20053;-62
2022/06/16 02:16:58;;;;;;;8.23;4.75;;;;;;;18.43;77.12;100748.66;8312396;28;19913;-63
2022/06/16 02:21:25;;;;;;;9.57;4.82;;;;;;;18.40;77.63;100764.59;8301030;28;20496;-63
2022/06/16 02:25:26;;;;;;;10.65;5.03;;;;;;;18.31;77.47;100761.06;8312504;28;20064;-63
2022/06/16 02:29:34;;;;;;;9.63;4.40;;;;;;;18.32;77.70;100757.28;8306892;28;20141;-63
2022/06/16 02:33:48;;;;;;;7.20;4.35;;;;;;;18.27;77.53;100753.41;8273252;28;20042;-63
2022/06/16 02:38:08;;;;;;;8.18;4.15;;;;;;;18.05;78.87;100755.09;8280337;28;20155;-63
2022/06/16 02:42:35;;;;;;;10.55;4.40;;;;;;;17.83;80.57;100755.09;8279936;28;20049;-63
2022/06/16 02:46:52;;;;;;;9.00;4.90;;;;;;;17.66;81.11;100757.09;8286578;28;20038;-63
2022/06/16 02:51:01;;;;;;;5.70;3.95;;;;;;;17.55;81.61;100754.78;8278479;28;20064;-63
2022/06/16 02:55:27;;;;;;;6.78;4.90;;;;;;;17.28;83.57;100758.81;8288832;28;20038;-63
2022/06/16 02:59:37;;;;;;;6.60;4.32;;;;;;;17.22;84.02;100772.31;8265002;28;20038;-63
2022/06/16 03:03:38;;;;;;;12.45;5.60;;;;;;;17.19;83.11;100764.47;8266530;28;20537;-63
2022/06/16 03:07:39;;;;;;;9.20;4.32;;;;;;;17.16;83.70;100764.81;8262933;28;20049;-63
2022/06/16 03:11:39;;;;;;;6.22;4.70;;;;;;;17.12;82.76;100777.16;8264770;28;20053;-63
2022/06/16 03:15:40;;;;;;;8.00;4.78;;;;;;;17.08;82.86;100778.53;8268496;28;20034;-63
2022/06/16 03:19:40;;;;;;;8.18;4.57;;;;;;;16.96;83.04;100779.94;8265204;28;20081;-63
2022/06/16 03:23:41;;;;;;;12.10;5.63;;;;;;;16.85;82.59;100792.09;8266692;28;20069;-63
2022/06/16 03:27:41;;;;;;;9.57;5.40;;;;;;;16.79;82.28;100792.78;8267189;28;20042;-63
2022/06/16 03:31:42;;;;;;;10.10;5.45;;;;;;;16.79;81.89;100798.25;8266792;28;20046;-63
2022/06/16 03:35:43;;;;;;;11.80;4.80;;;;;;;16.78;81.59;100802.00;8266313;28;20528;-63
2022/06/16 03:39:44;;;;;;;6.68;4.97;;;;;;;16.82;81.13;100802.50;8274573;28;20046;-63
2022/06/16 03:43:44;;;;;;;11.57;5.28;;;;;;;16.83;80.45;100809.66;8275185;28;20113;-63
2022/06/16 03:47:45;;;;;;;8.88;5.15;;;;;;;16.86;80.09;100815.63;8259720;28;20034;-63
2022/06/16 03:51:45;;;;;;;11.52;5.10;;;;;;;16.86;80.15;100825.69;8276352;28;20050;-63
2022/06/16 03:55:46;;;;;;;7.60;4.85;;;;;;;16.76;80.39;100830.50;8272927;28;20070;-63
2022/06/16 03:59:46;;;;;;;9.40;4.80;;;;;;;16.88;80.41;100829.09;8262799;28;20090;-63
2022/06/16 04:04:02;;;;;;;10.55;4.53;;;;;;;16.86;80.05;100828.41;8264370;28;20557;-63
2022/06/16 04:08:02;;;;;;;8.00;4.50;;;;;;;16.94;80.47;100839.34;8255709;28;20534;-63
2022/06/16 04:12:04;;;;;;;8.45;4.22;;;;;;;16.82;79.64;100824.34;8263473;28;20108;-63
2022/06/16 04:16:04;;;;;;;7.13;4.50;;;;;;;16.72;79.62;100826.41;8260091;28;20035;-63
2022/06/16 04:20:13;;;;;;;8.07;4.47;;;;;;;16.66;79.98;100840.75;8263724;28;20049;-63
2022/06/16 04:24:15;;;;;;;8.50;4.80;;;;;;;16.69;79.54;100856.78;8267607;28;20041;-63
2022/06/16 04:28:15;;;;;;;11.43;4.30;;;;;;;16.82;79.21;100859.84;8265813;28;20045;-63
2022/06/16 04:32:16;;;;;;;7.97;4.25;;;;;;;16.89;78.82;100869.03;8259868;28;20034;-63
2022/06/16 04:36:17;;;;;;;7.93;4.00;;;;;;;16.91;79.02;100867.00;8258635;28;20031;-63
2022/06/16 04:40:18;;;;;;;8.73;4.18;;;;;;;17.08;78.63;100879.63;8259873;28;20129;-63
2022/06/16 04:44:18;;;;;;;13.05;4.38;;;;;;;17.20;80.03;100886.44;8258113;28;20030;-63
2022/06/16 04:48:18;;;;;;;9.83;4.37;;;;;;;17.48;78.70;100887.75;8264620;28;20057;-63
2022/06/16 04:52:19;;;;;;;11.87;4.90;;;;;;;17.67;76.55;100876.41;8270947;28;20765;-63
2022/06/16 04:56:19;;;;;;;9.40;4.43;;;;;;;17.61;76.75;100868.91;8258029;28;20270;-63
2022/06/16 05:00:20;;;;;;;9.57;4.47;;;;;;;17.82;75.77;100884.69;8263520;28;20481;-63
2022/06/16 05:04:21;;;;;;;13.07;4.85;;;;;;;17.92;75.53;100891.66;8268380;28;20048;-63
2022/06/16 05:08:23;;;;;;;7.28;4.30;;;;;;;18.00;75.00;100877.09;8259423;28;20041;-63
2022/06/16 05:12:23;;;;;;;9.02;4.60;;;;;;;18.22;74.54;100882.59;8260795;28;20475;-63
2022/06/16 05:16:23;;;;;;;10.10;4.88;;;;;;;18.31;74.21;100897.94;8258347;28;20038;-63
2022/06/16 05:20:24;;;;;;;9.70;4.53;;;;;;;18.29;74.64;100905.47;8263341;28;20057;-63
2022/06/16 05:24:24;;;;;;;7.60;3.95;;;;;;;18.69;74.09;100910.69;8278584;28;20309;-63
2022/06/16 05:28:25;;;;;;;7.53;4.37;;;;;;;18.93;74.41;100920.59;8265507;28;20065;-64
2022/06/16 05:32:26;;;;;;;11.95;4.55;;;;;;;19.13;72.69;100922.63;8258940;28;20766;-64
2022/06/16 05:36:26;;;;;;;9.93;4.38;;;;;;;18.96;71.70;100926.56;8265225;28;20526;-64
2022/06/16 05:40:27;;;;;;;7.57;4.75;;;;;;;19.13;71.55;100938.25;8262383;28;20403;-64
2022/06/16 05:44:27;;;;;;;9.27;4.40;;;;;;;18.99;71.14;100942.63;8261340;28;20489;-64
2022/06/16 05:48:28;;;;;;;11.45;4.97;;;;;;;19.60;72.44;100946.19;8257167;28;20105;-64
2022/06/16 05:52:28;;;;;;;9.15;4.28;;;;;;;19.51;70.80;100961.03;8279635;28;20029;-64
2022/06/16 05:56:29;;;;;;;11.50;4.25;;;;;;;19.41;70.12;100964.03;8287572;28;20050;-64
2022/06/16 06:00:30;;;;;;;9.82;3.92;;;;;;;19.19;66.96;100953.94;8283989;28;20050;-64
2022/06/16 06:04:31;;;;;;;7.93;4.07;;;;;;;19.44;67.42;100959.03;8260950;28;20487;-64
2022/06/16 06:17:15;;;;;;;7.38;4.00;;;;;;;19.52;65.44;100973.72;8262830;28;20097;-64
2022/06/16 06:21:16;;;;;;;7.82;3.72;;;;;;;19.73;66.32;100969.16;8266530;28;20486;-64
2022/06/16 06:25:16;;;;;;;6.15;3.75;;;;;;;19.54;65.45;100968.91;8293480;28;20397;-64
2022/06/16 06:29:16;;;;;;;6.47;3.50;;;;;;;19.65;64.93;100968.41;8282118;28;20358;-64
2022/06/16 06:33:17;;;;;;;8.27;3.70;;;;;;;19.98;64.33;100973.34;8265381;28;20062;-64
2022/06/16 06:37:21;;;;;;;9.48;4.32;;;;;;;20.12;64.01;100980.75;8263051;28;20844;-64
2022/06/16 06:41:22;;;;;;;6.43;3.50;;;;;;;20.26;63.98;100992.75;8267203;28;20470;-64
2022/06/16 06:45:22;;;;;;;7.28;3.35;;;;;;;20.48;63.13;100991.75;8261936;28;20085;-64
2022/06/16 06:49:22;;;;;;;7.75;4.18;;;;;;;20.44;62.96;100993.22;8269741;28;20120;-64
2022/06/16 06:53:23;;;;;;;6.75;3.55;;;;;;;20.35;63.19;101006.22;8268580;28;20402;-64
2022/06/16 06:57:26;;;;;;;5.57;3.75;;;;;;;20.43;63.25;101003.34;8263088;28;20403;-64
2022/06/16 07:01:27;;;;;;;8.15;4.30;;;;;;;20.57;62.72;101007.09;8266184;28;20121;-63
2022/06/16 07:05:28;;;;;;;7.47;3.70;;;;;;;21.07;63.66;101009.78;8268654;28;20042;-63
2022/06/16 07:09:28;;;;;;;8.00;3.67;;;;;;;21.53;61.75;101011.06;8269386;28;20066;-63
2022/06/16 07:13:29;;;;;;;9.90;3.83;;;;;;;21.84;63.28;101022.59;8281342;28;20406;-63
2022/06/16 07:17:29;;;;;;;11.68;3.92;;;;;;;21.86;60.77;101020.44;8282530;28;20368;-63
2022/06/16 07:21:30;;;;;;;5.75;3.10;;;;;;;21.75;60.66;101025.69;8272529;28;20407;-63
2022/06/16 07:25:30;;;;;;;6.82;3.67;;;;;;;21.82;60.67;101032.94;8288304;28;20046;-63
2022/06/16 07:29:31;;;;;;;9.23;3.70;;;;;;;22.11;60.12;101038.19;8275116;28;20057;-63
2022/06/16 07:33:32;;;;;;;11.63;3.95;;;;;;;21.94;60.28;101047.84;8265175;28;20290;-63
2022/06/16 07:37:32;;;;;;;8.10;3.47;;;;;;;22.34;61.36;101049.78;8264426;28;20046;-63
2022/06/16 07:41:34;;;;;;;7.55;3.50;;;;;;;22.14;58.84;101043.31;8262867;28;20528;-63
2022/06/16 07:45:37;;;;;;;9.60;4.07;;;;;;;22.11;59.19;101046.47;8260760;28;20052;-63
2022/06/16 07:49:38;;;;;;;11.48;3.88;;;;;;;22.19;59.09;101051.81;8263485;28;20042;-63
2022/06/16 07:53:39;;;;;;;8.60;3.60;;;;;;;22.30;60.12;101054.03;8273155;28;20053;-63
2022/06/16 07:57:41;;;;;;;9.07;3.80;;;;;;;22.35;58.68;101057.00;8259357;28;20051;-63
2022/06/16 08:01:42;;;;;;;10.98;3.75;;;;;;;22.35;59.43;101065.25;8250989;28;20438;-63
2022/06/16 08:05:45;;;;;;;8.73;2.70;;;;;;;22.89;58.81;101077.22;8259862;28;20497;-63
2022/06/16 08:09:45;;;;;;;8.95;3.88;;;;;;;22.90;57.88;101076.16;8246695;28;20030;-63
2022/06/16 08:13:45;;;;;;;9.23;3.90;;;;;;;23.23;57.01;101072.66;8243975;28;20047;-63
2022/06/16 08:17:49;;;;;;;7.70;4.23;;;;;;;22.81;57.57;101066.34;8265564;28;20073;-63
2022/06/16 08:21:50;;;;;;;10.60;3.63;;;;;;;22.67;57.99;101075.66;8258881;28;20300;-63
2022/06/16 08:25:50;;;;;;;5.57;3.13;;;;;;;22.98;58.17;101081.50;8256082;28;20453;-63
2022/06/16 08:29:51;;;;;;;9.52;3.90;;;;;;;23.31;58.01;101091.78;8267524;28;20050;-64
2022/06/16 08:33:52;;;;;;;8.82;3.22;;;;;;;23.16;56.63;101092.81;8259597;28;20052;-63
2022/06/16 08:37:53;;;;;;;7.68;3.53;;;;;;;23.13;56.08;101098.75;8261331;28;20076;-63
2022/06/16 08:42:06;;;;;;;10.90;4.25;;;;;;;23.12;55.71;101094.25;8246389;28;20473;-63
2022/06/16 08:46:08;;;;;;;6.73;3.73;;;;;;;23.23;56.13;101100.25;8249431;28;20053;-63
2022/06/16 08:50:22;;;;;;;9.70;4.88;;;;;;;23.26;55.89;101094.34;8251058;28;20552;-63
2022/06/16 08:54:42;;;;;;;;;;;;;;;23.74;56.00;101087.59;8256174;28;20046;-63
2022/06/16 08:59:09;;;;;;;9.02;5.32;;;;;;;23.73;55.57;101096.94;8251880;28;20060;-63
2022/06/16 09:03:38;;;;;;;12.27;4.97;;;;;;;24.04;54.66;101097.19;8245565;28;20042;-63
2022/06/16 09:08:08;;;;;;;10.00;3.85;;;;;;;23.82;53.89;101112.25;8249108;28;20129;-63
2022/06/16 09:12:28;;;;;;;8.50;3.35;;;;;;;24.12;54.11;101108.88;8250585;28;20046;-63
2022/06/16 09:16:42;;;;;;;8.02;3.13;;;;;;;23.93;53.21;101125.41;8251566;28;20056;-63
2022/06/16 09:21:22;;;;;;;6.70;2.83;;;;;;;25.07;53.47;101122.91;8257706;28;20600;-63
2022/06/16 09:30:19;;;;;;;7.00;2.95;;;;;;;23.91;51.31;101116.50;8322459;27;20415;-63
2022/06/16 09:34:25;;;;;;;6.63;3.03;;;;;;;24.53;52.16;101127.94;8306027;28;20041;-64
2022/06/16 09:38:49;;;;;;;6.10;2.97;;;;;;;24.42;49.86;101136.88;8303369;28;20466;-63
2022/06/16 09:42:59;;;;;;;6.70;2.88;;;;;;;24.29;49.87;101142.44;8309930;28;20037;-63
2022/06/16 09:47:06;;;;;;;8.98;3.22;;;;;;;25.00;49.21;101146.97;8300000;28;20044;-63
2022/06/16 09:51:30;;;;;;;6.47;2.60;;;;;;;24.60;48.76;101157.28;8307373;28;20038;-63
2022/06/16 09:55:34;;;;;;;;;;;;;;;24.49;49.57;101163.47;8305815;28;20127;-63
2022/06/16 09:59:45;;;;;;;7.30;2.40;;;;;;;26.07;47.65;101168.09;8322309;28;20379;-63
2022/06/16 10:04:03;;;;;;;7.25;2.35;;;;;;;26.95;45.48;101169.59;8337058;28;20317;-63
2022/06/16 10:08:15;;;;;;;8.77;2.53;;;;;;;27.98;42.69;101169.28;8301597;28;20038;-64
2022/06/16 10:12:41;;;;;;;7.40;2.33;;;;;;;28.12;42.48;101181.03;8300234;28;20354;-64
2022/06/16 10:16:53;;;;;;;7.18;2.10;;;;;;;30.04;43.19;101171.97;8297785;28;20410;-64
2022/06/16 10:20:53;;;;;;;8.85;1.90;;;;;;;30.49;38.19;101179.47;8304901;28;20053;-64
2022/06/16 10:25:17;;;;;;;5.15;1.88;;;;;;;30.91;39.33;101189.06;8303206;28;20490;-64
2022/06/16 10:29:25;;;;;;;4.80;1.90;;;;;;;30.61;37.89;101175.47;8294538;28;20052;-64
2022/06/16 10:33:30;;;;;;;4.68;1.33;;;;;;;30.55;37.70;101184.03;8312026;28;20053;-64
2022/06/16 10:37:31;;;;;;;5.03;2.10;;;;;;;30.20;38.40;101176.78;8297273;28;20041;-64
2022/06/16 10:41:36;;;;;;;5.00;2.40;;;;;;;30.87;39.07;101185.09;8282694;28;20052;-64
2022/06/16 10:45:37;;;;;;;5.60;2.30;;;;;;;30.51;38.11;101182.84;8288163;28;20143;-64
2022/06/16 10:49:42;;;;;;;4.90;2.22;;;;;;;30.09;38.32;101186.03;8277571;28;20058;-64
2022/06/16 10:53:47;;;;;;;4.95;1.70;;;;;;;30.31;37.49;101172.22;8281737;28;20242;-64
2022/06/16 10:58:02;;;;;;;5.03;1.73;;;;;;;30.29;37.70;101172.47;8275600;28;20045;-64
2022/06/16 11:02:17;;;;;;;3.58;1.50;;;;;;;31.05;37.78;101176.41;8271137;28;20117;-64
2022/06/16 11:06:21;;;;;;;11.10;2.50;;;;;;;30.94;37.03;101174.56;8272580;28;20149;-64
2022/06/16 11:10:34;;;;;;;4.65;1.77;;;;;;;30.44;36.73;101186.63;8256274;28;20072;-64
2022/06/16 11:14:40;;;;;;;7.60;2.33;;;;;;;31.01;37.29;101192.03;8266307;28;20074;-63
2022/06/16 11:18:44;;;;;;;4.93;2.20;;;;;;;31.03;36.79;101187.84;8265616;28;20331;-63
2022/06/16 11:22:47;;;;;;;9.10;2.15;;;;;;;30.97;37.22;101183.31;8262572;28;20049;-63
2022/06/16 11:26:52;;;;;;;5.57;2.20;;;;;;;30.33;38.26;101182.00;8273105;28;20066;-63
2022/06/16 11:30:57;;;;;;;4.70;2.03;;;;;;;30.82;39.53;101171.03;8270712;28;20044;-63
2022/06/16 11:34:57;;;;;;;4.32;1.70;;;;;;;30.32;38.71;101163.59;8298923;28;20115;-64
2022/06/16 11:39:37;;;;;;;6.57;2.27;;;;;;;30.81;37.52;101167.44;8307905;28;20704;-64
2022/06/16 11:44:05;;;;;;;3.63;1.83;;;;;;;31.35;36.93;101169.28;8310541;28;20342;-64
2022/06/16 11:53:06;;;;;;;6.03;2.17;;;;;;;30.18;37.81;101165.00;8312731;27;20397;-62
2022/06/16 11:57:31;;;;;;;6.18;1.67;;;;;;;30.15;38.42;101178.56;8290561;28;20474;-63
2022/06/16 12:01:44;;;;;;;4.47;1.30;;;;;;;31.67;38.49;101166.59;8274166;28;20034;-63
2022/06/16 12:06:14;;;;;;;3.00;1.13;;;;;;;30.66;37.90;101166.31;8265588;28;20531;-63
2022/06/16 12:14:58;;;;;;;6.13;1.60;;;;;;;27.63;40.83;101164.69;8330305;27;20380;-63
2022/06/16 12:19:13;;;;;;;7.10;1.88;;;;;;;26.46;43.49;101173.31;8325386;28;20041;-63
2022/06/16 12:23:24;;;;;;;3.75;1.25;;;;;;;25.49;44.38;101177.63;8307725;28;20049;-63
2022/06/16 12:27:35;;;;;;;3.83;1.67;;;;;;;25.21;43.63;101177.09;8313151;28;20495;-63
2022/06/16 12:32:02;;;;;;;5.50;1.73;;;;;;;25.10;45.30;101177.81;8312921;28;20506;-63
2022/06/16 12:36:11;;;;;;;6.05;1.23;;;;;;;24.86;44.39;101167.47;8317280;28;20041;-63
2022/06/16 12:40:22;;;;;;;3.53;1.48;;;;;;;25.15;44.31;101177.97;8338293;28;20554;-63
2022/06/16 12:44:36;;;;;;;5.45;1.30;;;;;;;25.31;45.45;101177.47;8313341;28;20033;-63
2022/06/16 12:48:43;;;;;;;4.95;1.45;;;;;;;25.38;44.35;101170.03;8313250;28;20034;-63
2022/06/16 12:52:51;;;;;;;5.47;1.60;;;;;;;25.53;44.25;101165.06;8311214;28;20232;-63
2022/06/16 12:57:00;;;;;;;3.92;1.45;;;;;;;25.31;45.22;101166.41;8311704;28;20125;-63
2022/06/16 13:01:05;;;;;;;3.70;1.30;;;;;;;25.57;45.04;101166.31;8294280;28;20030;-63
2022/06/16 13:05:10;;;;;;;3.25;1.40;;;;;;;25.47;44.34;101179.78;8310187;28;20073;-63
2022/06/16 13:09:12;;;;;;;2.83;1.42;;;;;;;25.27;43.44;101181.75;8322443;28;20061;-63
2022/06/16 13:13:21;;;;;;;6.35;1.50;;;;;;;25.34;44.59;101179.00;8331812;28;20502;-63
2022/06/16 13:17:27;;;;;;;2.97;1.55;;;;;;;25.50;47.57;101192.34;8311951;28;20513;-63
2022/06/16 13:21:34;;;;;;;3.85;1.52;;;;;;;25.68;44.15;101190.50;8312362;28;20113;-63
2022/06/16 13:25:50;;;;;;;2.15;1.08;;;;;;;25.80;44.35;101188.72;8288173;28;20184;-63
2022/06/16 13:30:12;;;;;;;4.85;1.60;;;;;;;25.60;44.09;101204.66;8284385;28;20046;-63
2022/06/16 13:34:17;;;;;;;6.28;1.70;;;;;;;25.94;45.47;101211.66;8281917;28;20038;-63
2022/06/16 13:38:22;;;;;;;2.53;1.50;;;;;;;25.62;44.23;101208.06;8274371;28;20435;-63
2022/06/16 13:42:41;;;;;;;;;;;;;;;25.54;44.21;101216.59;8285864;28;20038;-63
2022/06/16 13:51:03;;;;;;;7.07;2.17;;;;;;;25.45;45.57;101201.31;8291062;28;20397;-62
2022/06/16 13:55:23;;;;;;;3.90;2.00;;;;;;;25.46;44.95;101191.09;8261504;28;20619;-62
2022/06/16 13:59:29;;;;;;;5.30;1.88;;;;;;;25.68;45.07;101201.59;8283167;28;20037;-62
2022/06/16 14:03:31;;;;;;;5.80;2.28;;;;;;;25.47;45.83;101190.88;8296754;28;20046;-62
2022/06/16 14:12:05;;;;;;;7.55;2.63;;;;;;;25.72;46.43;101202.88;8382500;27;20397;-63
2022/06/16 14:20:24;;;;;;;5.03;1.80;;;;;;;25.84;45.92;101190.00;8392323;27;20371;-64
2022/06/16 14:24:48;;;;;;;5.05;1.75;;;;;;;25.74;45.68;101178.53;8357191;28;20032;-63
2022/06/16 14:28:49;;;;;;;7.10;2.50;;;;;;;25.56;45.57;101181.25;8336403;28;20590;-63
2022/06/16 14:32:56;;;;;;;6.65;2.40;;;;;;;25.65;46.38;101191.00;8336654;28;20075;-63
2022/06/16 14:37:06;;;;;;;7.70;2.55;;;;;;;25.86;46.50;101187.84;8332422;28;20124;-63
2022/06/16 14:41:16;;;;;;;7.05;2.28;;;;;;;25.87;46.67;101186.78;8336328;28;20049;-63
2022/06/16 14:45:42;;;;;;;6.32;2.22;;;;;;;25.85;47.12;101186.16;8327568;28;20455;-63
2022/06/16 14:49:50;;;;;;;7.85;2.92;;;;;;;26.04;46.20;101176.88;8328445;28;20118;-63
2022/06/16 14:53:58;;;;;;;4.97;1.95;;;;;;;25.99;46.88;101160.09;8339306;28;20041;-63
2022/06/16 14:58:06;;;;;;;3.17;1.98;;;;;;;25.96;46.19;101157.72;8360653;28;20519;-63
2022/06/16 15:02:09;;;;;;;7.63;2.30;;;;;;;25.81;45.70;101148.03;8330601;28;20045;-63
2022/06/16 15:06:11;;;;;;;5.10;1.90;;;;;;;25.84;46.46;101139.25;8329482;28;20025;-63
2022/06/16 15:10:17;;;;;;;3.90;2.30;;;;;;;25.93;46.40;101141.56;8344157;28;20044;-63
2022/06/16 15:14:18;;;;;;;3.60;1.80;;;;;;;25.74;45.87;101139.75;8341478;28;20049;-63
2022/06/16 15:18:18;;;;;;;5.25;1.65;;;;;;;25.81;46.51;101150.78;8339757;28;20033;-63
2022/06/16 15:22:25;;;;;;;4.95;1.60;;;;;;;25.86;46.71;101160.13;8342925;28;20116;-63
2022/06/16 15:26:30;;;;;;;5.57;1.92;;;;;;;25.74;46.56;101156.38;8343846;28;20040;-63
2022/06/16 15:30:32;;;;;;;4.28;1.65;;;;;;;25.65;45.48;101156.88;8327461;28;20025;-63
2022/06/16 15:38:54;;;;;;;3.92;1.77;;;;;;;25.86;46.99;101165.66;8321434;28;20402;-63
2022/06/16 15:42:55;;;;;;;4.38;1.67;;;;;;;25.84;46.43;101166.97;8318219;28;20509;-63
2022/06/16 15:46:59;;;;;;;3.57;1.87;;;;;;;25.68;46.87;101171.13;8321876;28;20435;-63
2022/06/16 15:51:07;;;;;;;4.53;1.60;;;;;;;25.54;47.36;101172.28;8317254;28;20268;-63
2022/06/16 15:55:13;;;;;;;3.72;1.80;;;;;;;25.89;48.00;101181.84;8320918;28;20154;-64
2022/06/16 15:59:14;;;;;;;3.42;1.52;;;;;;;25.73;47.24;101171.31;8309477;28;20052;-62
2022/06/16 16:03:20;;;;;;;3.20;1.75;;;;;;;25.86;47.70;101176.75;8314268;28;20124;-64
2022/06/16 16:07:21;;;;;;;5.30;1.70;;;;;;;25.79;47.51;101175.97;8314302;28;20568;-64
2022/06/16 16:11:24;;;;;;;6.28;1.65;;;;;;;25.71;48.54;101167.91;8318738;28;20041;-64
2022/06/16 16:15:25;;;;;;;5.63;1.77;;;;;;;25.57;47.58;101163.53;8315064;28;20061;-64
2022/06/16 16:19:25;;;;;;;3.10;1.88;;;;;;;25.51;48.92;101158.03;8317670;28;20045;-64
2022/06/16 16:23:32;;;;;;;4.22;1.70;;;;;;;25.59;49.50;101160.53;8324280;28;20041;-65
2022/06/16 16:27:33;;;;;;;2.78;1.70;;;;;;;25.66;49.03;101164.97;8320367;28;20068;-64
2022/06/16 16:31:50;;;;;;;3.67;1.52;;;;;;;25.67;48.21;101171.38;8318536;28;20180;-64
2022/06/16 16:36:10;;;;;;;4.18;1.55;;;;;;;25.59;47.50;101180.78;8309290;28;20125;-64
2022/06/16 16:40:21;;;;;;;4.38;1.88;;;;;;;25.80;47.82;101194.28;8310534;28;20457;-64
2022/06/16 16:44:25;;;;;;;3.15;1.73;;;;;;;25.73;47.11;101181.53;8316137;28;20051;-64
2022/06/16 16:48:28;;;;;;;8.38;2.17;;;;;;;25.67;47.34;101176.91;8311971;28;20030;-64
2022/06/16 16:52:34;;;;;;;5.82;2.08;;;;;;;25.61;47.80;101159.25;8308133;28;20494;-64
2022/06/16 16:56:37;;;;;;;4.00;2.13;;;;;;;25.54;48.91;101166.75;8302209;28;20041;-64
2022/06/16 17:00:40;;;;;;;3.97;2.10;;;;;;;25.36;49.30;101158.31;8308035;28;20064;-64
2022/06/16 17:04:41;;;;;;;2.55;1.50;;;;;;;25.31;49.24;101149.78;8307711;28;20096;-64
2022/06/16 17:08:42;;;;;;;3.20;1.42;;;;;;;25.36;49.04;101144.47;8311451;28;20037;-65
2022/06/16 17:12:45;;;;;;;4.82;1.50;;;;;;;25.34;49.85;101149.38;8308446;28;20041;-64
2022/06/16 17:16:46;;;;;;;3.50;1.50;;;;;;;25.27;48.68;101153.22;8310086;28;20041;-64
2022/06/16 17:20:46;;;;;;;3.38;1.80;;;;;;;25.27;49.77;101154.09;8343412;28;20125;-64
2022/06/16 17:24:48;;;;;;;4.20;1.80;;;;;;;25.25;50.18;101156.22;8311523;28;20065;-64
2022/06/16 17:28:49;;;;;;;4.90;1.80;;;;;;;25.17;50.68;101164.78;8309271;28;20280;-64
2022/06/16 17:32:50;;;;;;;5.43;1.77;;;;;;;25.08;50.87;101151.41;8305347;28;20054;-64
2022/06/16 17:36:53;;;;;;;3.38;1.45;;;;;;;24.89;51.26;101150.44;8310843;28;20045;-64
2022/06/16 17:40:53;;;;;;;7.47;1.83;;;;;;;24.76;51.26;101153.22;8304295;28;20045;-64
2022/06/16 17:44:53;;;;;;;5.90;1.60;;;;;;;24.78;51.06;101153.84;8314696;28;20041;-64
2022/06/16 17:48:57;;;;;;;4.70;1.90;;;;;;;24.86;51.45;101150.88;8317581;28;20037;-64
2022/06/16 18:01:26;;;;;;;5.03;1.80;;;;;;;24.92;51.17;101155.53;8314753;28;20041;-64
2022/06/16 18:05:27;;;;;;;6.00;1.60;;;;;;;24.72;51.02;101160.25;8316194;28;20468;-64
2022/06/16 18:09:28;;;;;;;3.70;1.48;;;;;;;24.60;52.48;101167.47;8316527;28;20038;-64
2022/06/16 18:13:30;;;;;;;8.07;1.80;;;;;;;24.41;52.57;101158.16;8316013;28;20056;-64
2022/06/16 18:17:34;;;;;;;3.00;1.60;;;;;;;24.28;52.68;101163.69;8303996;28;20045;-64
2022/06/16 18:21:38;;;;;;;4.18;1.55;;;;;;;24.27;53.35;101166.66;8315514;28;20084;-64
2022/06/16 18:25:40;;;;;;;4.55;1.48;;;;;;;24.28;53.52;101174.75;8313202;28;20042;-64
2022/06/16 18:29:41;;;;;;;6.75;2.20;;;;;;;24.29;53.30;101189.44;8352264;28;20057;-64
2022/06/16 18:33:41;;;;;;;4.60;1.65;;;;;;;24.15;54.42;101207.09;8313250;28;20418;-64
2022/06/16 18:37:42;;;;;;;5.85;1.90;;;;;;;24.07;56.32;101208.16;8317513;28;20152;-64
2022/06/16 18:41:46;;;;;;;2.33;1.70;;;;;;;23.98;55.79;101219.59;8311494;28;20458;-64
2022/06/16 18:45:49;;;;;;;5.72;1.85;;;;;;;23.96;55.86;101210.66;8312666;28;20044;-64
2022/06/16 18:49:49;;;;;;;3.55;2.00;;;;;;;23.87;55.72;101220.19;8317714;28;20049;-64
2022/06/16 18:53:52;;;;;;;5.80;1.98;;;;;;;23.74;55.94;101215.50;8318383;28;20524;-64
2022/06/16 18:57:52;;;;;;;6.72;1.73;;;;;;;23.72;56.11;101202.97;8319785;28;20120;-64
2022/06/16 19:01:52;;;;;;;5.85;1.70;;;;;;;23.64;56.02;101198.50;8318234;28;20099;-64
2022/06/16 19:05:53;;;;;;;5.53;2.08;;;;;;;23.60;56.41;101191.66;8299425;28;20525;-64
2022/06/16 19:09:55;;;;;;;3.33;1.50;;;;;;;23.50;57.43;101198.63;8322200;28;20498;-64
2022/06/16 19:13:55;;;;;;;6.30;1.65;;;;;;;23.36;57.53;101202.44;8317417;28;20045;-64
2022/06/16 19:18:02;;;;;;;4.35;1.80;;;;;;;23.19;58.03;101211.03;8317739;28;20090;-64
2022/06/16 19:22:04;;;;;;;5.78;1.85;;;;;;;23.04;58.29;101209.47;8323705;28;20041;-64
2022/06/16 19:26:09;;;;;;;5.07;2.10;;;;;;;22.86;59.05;101214.66;8315638;28;20038;-64
2022/06/16 19:30:21;;;;;;;4.70;1.65;;;;;;;22.68;59.53;101211.56;8321176;28;20037;-64
2022/06/16 19:34:22;;;;;;;6.20;1.63;;;;;;;22.59;59.29;101197.09;8315886;28;20520;-64
2022/06/16 19:38:35;;;;;;;7.33;2.20;;;;;;;22.47;60.78;101209.72;8320172;28;20522;-64
2022/06/16 19:42:39;;;;;;;6.55;2.67;;;;;;;22.02;62.99;101226.69;8319289;28;20379;-64
2022/06/16 19:51:11;;;;;;;6.75;2.83;;;;;;;21.61;64.00;101228.34;8320611;28;20114;-64
2022/06/16 19:55:15;;;;;;;14.95;6.85;;;;;;;21.26;65.72;101226.47;8319208;28;20508;-64
2022/06/16 19:59:15;;;;;;;11.40;5.63;;;;;;;21.17;66.71;101235.88;8319855;28;20330;-64
2022/06/16 20:03:19;;;;;;;15.48;8.13;;;;;;;20.92;67.82;101248.19;8318997;28;20315;-64